createdAt,value
2019-03-01T00:03:40.314Z,10.54
2019-03-01T00:09:55.001Z,10.37
2019-03-01T00:16:16.212Z,10.42
2019-03-01T00:22:28.545Z,10.29
2019-03-01T00:28:49.568Z,10.46
2019-03-01T00:35:16.775Z,10.42
2019-03-01T00:41:48.486Z,10.43
2019-03-01T00:47:53.145Z,10.35
2019-03-01T00:53:57.874Z,10.27
2019-03-01T01:00:02.609Z,10.30
2019-03-01T01:06:07.202Z,10.34
2019-03-01T01:12:11.918Z,10.24
2019-03-01T01:18:16.508Z,10.10
2019-03-01T01:24:21.073Z,9.94
2019-03-01T01:30:25.632Z,9.81
2019-03-01T01:36:31.140Z,9.61
2019-03-01T01:42:35.706Z,9.69
2019-03-01T01:48:40.262Z,9.34
2019-03-01T01:54:44.862Z,9.20
2019-03-01T02:00:49.582Z,9.14
2019-03-01T02:06:54.199Z,8.87
2019-03-01T02:13:00.021Z,8.96
2019-03-01T02:19:04.652Z,9.03
2019-03-01T02:25:13.450Z,8.84
2019-03-01T02:31:18.922Z,8.92
2019-03-01T02:37:23.524Z,8.84
2019-03-01T02:43:28.363Z,9.02
2019-03-01T02:49:33.298Z,8.92
2019-03-01T02:55:37.856Z,8.96
2019-03-01T03:01:42.417Z,8.97
2019-03-01T03:07:54.564Z,9.04
2019-03-01T03:13:59.257Z,9.06
2019-03-01T03:20:04.593Z,9.13
2019-03-01T03:26:09.465Z,9.12
2019-03-01T03:32:14.188Z,9.31
2019-03-01T03:38:18.834Z,9.21
2019-03-01T03:44:23.473Z,9.26
2019-03-01T03:50:28.829Z,9.19
2019-03-01T03:56:34.019Z,9.37
2019-03-01T04:02:38.897Z,9.36
2019-03-01T04:08:43.600Z,9.30
2019-03-01T04:14:48.284Z,9.24
2019-03-01T04:20:52.946Z,9.29
2019-03-01T04:26:57.545Z,9.27
2019-03-01T04:33:02.364Z,9.28
2019-03-01T04:39:08.508Z,9.25
2019-03-01T04:45:16.088Z,9.25
2019-03-01T04:51:20.737Z,9.34
2019-03-01T04:57:25.442Z,9.49
2019-03-01T05:03:30.029Z,9.34
2019-03-01T05:09:34.606Z,9.62
2019-03-01T05:15:39.168Z,9.53
2019-03-01T05:21:43.751Z,9.26
2019-03-01T05:27:48.321Z,9.21
2019-03-01T05:33:52.879Z,9.14
2019-03-01T05:39:57.524Z,9.31
2019-03-01T05:46:02.128Z,9.28
2019-03-01T05:52:06.762Z,9.20
2019-03-01T05:58:32.976Z,9.16
2019-03-01T06:04:48.208Z,9.13
2019-03-01T06:10:57.838Z,9.04
2019-03-01T06:17:36.696Z,9.13
2019-03-01T06:23:57.687Z,8.89
2019-03-01T06:30:38.567Z,9.01
2019-03-01T06:37:03.006Z,8.99
2019-03-01T06:43:18.176Z,9.25
2019-03-01T06:49:24.493Z,9.16
2019-03-01T06:55:36.700Z,9.26
2019-03-01T07:01:42.006Z,9.24
2019-03-01T07:07:46.577Z,9.06
2019-03-01T07:13:51.145Z,9.29
2019-03-01T07:19:55.702Z,9.42
2019-03-01T07:26:00.745Z,9.29
2019-03-01T07:32:05.320Z,9.22
2019-03-01T07:38:09.872Z,9.13
2019-03-01T07:44:14.435Z,9.27
2019-03-01T07:50:19.091Z,9.28
2019-03-01T07:56:23.709Z,9.72
2019-03-01T08:02:29.826Z,9.57
2019-03-01T08:08:34.811Z,9.63
2019-03-01T08:14:40.681Z,9.83
2019-03-01T08:20:45.330Z,9.76
2019-03-01T08:26:49.945Z,9.67
2019-03-01T08:32:54.600Z,9.78
2019-03-01T08:39:00.816Z,9.62
2019-03-01T08:45:10.133Z,9.63
2019-03-01T08:51:14.821Z,9.96
2019-03-01T08:57:22.579Z,10.10
2019-03-01T09:03:36.271Z,10.01
2019-03-01T09:09:40.815Z,10.20
2019-03-01T09:15:46.175Z,10.23
2019-03-01T09:21:52.034Z,10.66
2019-03-01T09:27:57.635Z,10.83
2019-03-01T09:34:02.537Z,10.76
2019-03-01T09:40:07.907Z,10.62
2019-03-01T09:46:12.534Z,10.72
2019-03-01T09:52:17.112Z,11.13
2019-03-01T09:58:22.067Z,11.03
2019-03-01T10:04:26.640Z,11.21
2019-03-01T10:10:34.320Z,11.13
2019-03-01T10:16:38.963Z,10.78
2019-03-01T10:22:43.610Z,10.53
2019-03-01T10:28:48.245Z,10.72
2019-03-01T10:34:52.876Z,10.42
2019-03-01T10:40:57.576Z,10.58
2019-03-01T10:47:02.284Z,10.36
2019-03-01T10:53:07.046Z,10.34
2019-03-01T10:59:11.681Z,10.59
2019-03-01T11:05:16.393Z,10.59
2019-03-01T11:11:21.110Z,10.68
2019-03-01T11:17:25.680Z,10.76
2019-03-01T11:23:30.407Z,10.71
2019-03-01T11:29:35.121Z,10.61
2019-03-01T11:35:39.743Z,10.57
2019-03-01T11:41:46.867Z,10.50
2019-03-01T11:47:51.526Z,10.63
2019-03-01T11:53:56.119Z,10.50
2019-03-01T12:00:01.059Z,10.36
2019-03-01T12:06:05.695Z,10.34
2019-03-01T12:12:10.264Z,10.00
2019-03-01T12:18:14.818Z,9.44
2019-03-01T12:24:19.389Z,9.48
2019-03-01T12:30:28.203Z,9.56
2019-03-01T12:36:32.904Z,9.56
2019-03-01T12:42:37.489Z,9.57
2019-03-01T12:48:42.061Z,9.73
2019-03-01T12:54:46.703Z,9.89
2019-03-01T13:00:51.282Z,10.05
2019-03-01T13:06:55.853Z,9.97
2019-03-01T13:13:02.059Z,9.97
2019-03-01T13:19:06.932Z,10.13
2019-03-01T13:25:12.522Z,9.85
2019-03-01T13:31:17.071Z,9.88
2019-03-01T13:37:21.655Z,9.76
2019-03-01T13:43:27.349Z,9.61
2019-03-01T13:49:32.678Z,9.51
2019-03-01T13:55:37.242Z,9.18
2019-03-01T14:01:42.173Z,8.80
2019-03-01T14:07:48.081Z,8.21
2019-03-01T14:13:52.639Z,8.03
2019-03-01T14:19:57.613Z,7.76
2019-03-01T14:26:02.296Z,7.71
2019-03-01T14:32:07.851Z,7.62
2019-03-01T14:38:12.422Z,7.69
2019-03-01T14:44:17.044Z,7.57
2019-03-01T14:50:24.363Z,7.57
2019-03-01T14:56:34.724Z,7.65
2019-03-01T15:02:56.287Z,7.52
2019-03-01T15:09:01.019Z,7.45
2019-03-01T15:15:10.480Z,7.57
2019-03-01T15:21:15.886Z,7.63
2019-03-01T15:27:20.467Z,7.48
2019-03-01T15:33:25.029Z,7.40
2019-03-01T15:39:29.947Z,7.05
2019-03-01T15:45:36.722Z,7.10
2019-03-01T15:51:41.401Z,6.83
2019-03-01T15:57:45.976Z,6.98
2019-03-01T16:03:50.682Z,6.68
2019-03-01T16:09:58.296Z,6.76
2019-03-01T16:16:02.015Z,6.76
2019-03-01T16:22:06.711Z,6.68
2019-03-01T16:28:11.440Z,6.58
2019-03-01T16:34:17.391Z,6.56
2019-03-01T16:40:22.089Z,6.56
2019-03-01T16:46:28.466Z,6.57
2019-03-01T16:52:33.105Z,6.28
2019-03-01T16:58:37.688Z,6.37
2019-03-01T17:04:42.255Z,6.33
2019-03-01T17:10:46.837Z,6.09
2019-03-01T17:16:51.418Z,6.19
2019-03-01T17:22:55.995Z,6.12
2019-03-01T17:29:03.085Z,6.02
2019-03-01T17:35:10.994Z,5.92
2019-03-01T17:41:15.633Z,5.96
2019-03-01T17:47:20.255Z,5.95
2019-03-01T17:53:24.922Z,5.66
2019-03-01T17:59:30.074Z,5.76
2019-03-01T18:05:37.053Z,5.57
2019-03-01T18:11:44.564Z,5.53
2019-03-01T18:17:47.459Z,5.42
2019-03-01T18:23:52.179Z,5.48
2019-03-01T18:29:56.901Z,5.56
2019-03-01T18:36:01.517Z,5.66
2019-03-01T18:42:06.162Z,5.59
2019-03-01T18:48:10.862Z,5.49
2019-03-01T18:54:15.447Z,5.57
2019-03-01T19:00:35.673Z,5.62
2019-03-01T19:06:39.448Z,5.38
2019-03-01T19:12:44.828Z,5.46
2019-03-01T19:18:51.286Z,5.43
2019-03-01T19:24:56.806Z,5.35
2019-03-01T19:31:01.866Z,5.26
2019-03-01T19:37:06.445Z,5.32
2019-03-01T19:43:11.151Z,5.37
2019-03-01T19:49:15.691Z,5.40
2019-03-01T19:55:20.488Z,5.43
2019-03-01T20:01:25.396Z,5.24
2019-03-01T20:07:30.534Z,5.37
2019-03-01T20:13:35.245Z,5.26
2019-03-01T20:19:39.834Z,5.22
2019-03-01T20:25:47.560Z,5.04
2019-03-01T20:31:50.881Z,5.14
2019-03-01T20:37:55.573Z,5.04
2019-03-01T20:44:01.146Z,5.21
2019-03-01T20:50:11.904Z,5.12
2019-03-01T20:56:16.987Z,5.28
2019-03-01T21:02:21.853Z,5.22
2019-03-01T21:08:29.066Z,5.10
2019-03-01T21:14:33.050Z,5.16
2019-03-01T21:20:37.980Z,5.15
2019-03-01T21:26:42.550Z,5.13
2019-03-01T21:32:50.728Z,4.96
2019-03-01T21:38:53.382Z,5.01
2019-03-01T21:44:58.084Z,4.91
2019-03-01T21:51:03.371Z,4.87
2019-03-01T21:57:07.950Z,4.99
2019-03-01T22:03:12.582Z,5.01
2019-03-01T22:09:20.612Z,5.08
2019-03-01T22:15:29.377Z,5.03
2019-03-01T22:21:34.273Z,5.22
2019-03-01T22:27:38.869Z,5.10
2019-03-01T22:33:43.439Z,5.02
2019-03-01T22:39:51.481Z,5.03
2019-03-01T22:45:55.054Z,5.11
2019-03-01T22:51:59.877Z,5.13
2019-03-01T22:58:05.681Z,5.06
2019-03-01T23:04:11.169Z,5.03
2019-03-01T23:10:18.442Z,5.20
2019-03-01T23:16:22.252Z,5.17
2019-03-01T23:22:26.830Z,5.02
2019-03-01T23:28:31.810Z,5.14
2019-03-01T23:34:38.927Z,5.01
2019-03-01T23:40:42.664Z,4.92
2019-03-01T23:46:47.282Z,4.92
2019-03-01T23:52:54.948Z,4.95
2019-03-01T23:58:59.747Z,4.98
